createdAt,value
2022-12-27T00:02:19.887Z,96129.25
2022-12-27T00:24:05.105Z,96123.13
2022-12-27T00:26:43.743Z,96115.78
2022-12-27T00:29:11.086Z,96115.81
2022-12-27T00:31:38.083Z,96117.88
2022-12-27T00:34:06.269Z,96126.00
2022-12-27T00:36:41.695Z,96133.38
2022-12-27T00:39:20.560Z,96130.94
2022-12-27T00:41:49.563Z,96138.03
2022-12-27T00:51:39.246Z,96123.53
2022-12-27T00:57:44.259Z,96116.09
2022-12-27T01:00:11.461Z,96126.28
2022-12-27T01:02:38.526Z,96136.03
2022-12-27T01:05:05.801Z,96128.44
2022-12-27T01:07:32.357Z,96140.88
2022-12-27T01:09:58.975Z,96140.63
2022-12-27T01:15:10.204Z,96130.47
2022-12-27T01:17:39.291Z,96123.50
2022-12-27T01:20:07.359Z,96137.16
2022-12-27T01:22:36.904Z,96144.03
2022-12-27T01:25:03.737Z,96143.97
2022-12-27T01:30:16.584Z,96134.09
2022-12-27T01:32:43.070Z,96147.41
2022-12-27T01:35:09.545Z,96148.94
2022-12-27T01:37:36.038Z,96145.13
2022-12-27T01:40:02.519Z,96143.44
2022-12-27T01:42:29.033Z,96144.25
2022-12-27T01:44:57.405Z,96159.72
2022-12-27T01:47:37.573Z,96153.16
2022-12-27T01:50:03.973Z,96159.97
2022-12-27T01:52:41.721Z,96158.13
2022-12-27T01:55:37.620Z,96160.75
2022-12-27T01:58:09.347Z,96157.56
2022-12-27T02:00:35.902Z,96158.75
2022-12-27T02:03:04.085Z,96151.47
2022-12-27T02:05:30.738Z,96152.72
2022-12-27T02:08:11.744Z,96153.59
2022-12-27T02:11:01.048Z,96149.13
2022-12-27T02:13:29.261Z,96151.63
2022-12-27T02:15:55.749Z,96146.28
2022-12-27T02:18:22.321Z,96144.78
2022-12-27T02:21:03.991Z,96149.06
2022-12-27T02:23:45.880Z,96146.28
2022-12-27T02:26:37.300Z,96135.94
2022-12-27T02:29:21.921Z,96147.28
2022-12-27T02:31:55.498Z,96135.00
2022-12-27T02:34:28.679Z,96155.75
2022-12-27T02:36:59.362Z,96156.31
2022-12-27T02:39:26.595Z,96156.44
2022-12-27T02:41:53.623Z,96157.22
2022-12-27T02:44:20.441Z,96160.53
2022-12-27T02:46:47.365Z,96164.03
2022-12-27T02:49:32.170Z,96162.19
2022-12-27T02:52:24.963Z,96157.19
2022-12-27T02:55:25.577Z,96166.88
2022-12-27T02:58:11.058Z,96172.03
2022-12-27T03:00:46.912Z,96163.81
2022-12-27T03:03:44.816Z,96166.66
2022-12-27T03:06:36.428Z,96174.34
2022-12-27T03:09:23.237Z,96178.81
2022-12-27T03:11:51.811Z,96177.47
2022-12-27T03:14:26.370Z,96182.81
2022-12-27T03:17:01.931Z,96175.28
2022-12-27T03:19:50.072Z,96180.72
2022-12-27T03:22:18.457Z,96180.16
2022-12-27T03:24:47.288Z,96188.75
2022-12-27T03:27:21.802Z,96189.44
2022-12-27T03:29:50.432Z,96182.84
2022-12-27T03:32:16.972Z,96182.03
2022-12-27T03:34:50.705Z,96187.31
2022-12-27T03:37:22.300Z,96191.94
2022-12-27T03:40:14.909Z,96200.44
2022-12-27T03:42:48.351Z,96195.47
2022-12-27T03:45:15.052Z,96199.13
2022-12-27T03:47:49.537Z,96200.22
2022-12-27T03:50:30.011Z,96201.84
2022-12-27T03:53:26.515Z,96204.91
2022-12-27T03:55:53.007Z,96200.84
2022-12-27T03:58:19.553Z,96214.72
2022-12-27T04:00:46.056Z,96206.22
2022-12-27T04:03:12.612Z,96217.44
2022-12-27T04:05:39.146Z,96210.81
2022-12-27T04:08:05.709Z,96202.69
2022-12-27T04:10:32.244Z,96198.28
2022-12-27T04:12:58.719Z,96204.06
2022-12-27T04:15:25.188Z,96194.75
2022-12-27T04:17:51.735Z,96195.75
2022-12-27T04:20:18.272Z,96198.00
2022-12-27T04:22:44.833Z,96197.41
2022-12-27T04:28:39.264Z,96200.41
2022-12-27T04:31:08.547Z,96202.84
2022-12-27T04:34:01.507Z,96196.25
2022-12-27T04:36:28.173Z,96201.63
2022-12-27T04:38:54.699Z,96192.22
2022-12-27T04:41:21.444Z,96195.91
2022-12-27T04:43:48.038Z,96194.31
2022-12-27T04:46:43.361Z,96196.31
2022-12-27T04:49:24.073Z,96192.03
2022-12-27T04:51:50.604Z,96189.78
2022-12-27T04:54:19.664Z,96179.44
2022-12-27T04:57:48.018Z,96193.78
2022-12-27T05:00:15.549Z,96188.81
2022-12-27T05:02:42.198Z,96196.97
2022-12-27T05:05:09.321Z,96197.00
2022-12-27T05:07:37.073Z,96191.75
2022-12-27T05:10:10.193Z,96193.63
2022-12-27T05:12:36.692Z,96201.09
2022-12-27T05:15:03.285Z,96195.94
2022-12-27T05:17:30.204Z,96194.59
2022-12-27T05:19:58.627Z,96196.66
2022-12-27T05:22:25.152Z,96199.38
2022-12-27T05:25:11.140Z,96197.28
2022-12-27T05:33:36.277Z,96200.38
2022-12-27T05:36:02.778Z,96200.94
2022-12-27T05:39:06.133Z,96195.50
2022-12-27T05:41:34.870Z,96191.03
2022-12-27T05:44:06.741Z,96208.63
2022-12-27T05:46:34.046Z,96209.44
2022-12-27T05:49:00.560Z,96195.75
2022-12-27T05:51:27.052Z,96208.53
2022-12-27T05:53:53.539Z,96192.47
2022-12-27T05:56:21.220Z,96207.34
2022-12-27T05:58:48.134Z,96200.16
2022-12-27T06:01:16.946Z,96210.25
2022-12-27T06:03:43.630Z,96211.06
2022-12-27T06:06:10.947Z,96202.63
2022-12-27T06:08:37.948Z,96208.50
2022-12-27T06:11:13.258Z,96201.50
2022-12-27T06:13:40.904Z,96212.97
2022-12-27T06:16:08.849Z,96213.97
2022-12-27T06:18:37.201Z,96213.50
2022-12-27T06:21:09.694Z,96217.16
2022-12-27T06:23:38.251Z,96211.69
2022-12-27T06:26:09.549Z,96220.63
2022-12-27T06:28:36.023Z,96223.38
2022-12-27T06:31:03.126Z,96218.59
2022-12-27T06:33:30.002Z,96218.72
2022-12-27T06:35:56.815Z,96225.91
2022-12-27T06:38:25.604Z,96228.34
2022-12-27T06:41:01.046Z,96220.53
2022-12-27T06:43:27.538Z,96224.72
2022-12-27T06:45:58.548Z,96217.31
2022-12-27T06:48:25.091Z,96220.34
2022-12-27T06:50:51.648Z,96222.16
2022-12-27T06:53:18.296Z,96220.41
2022-12-27T06:55:44.830Z,96220.34
2022-12-27T06:58:11.323Z,96222.31
2022-12-27T07:00:37.892Z,96216.69
2022-12-27T07:03:04.527Z,96225.00
2022-12-27T07:05:37.646Z,96218.91
2022-12-27T07:08:04.178Z,96217.56
2022-12-27T07:10:31.059Z,96209.88
2022-12-27T07:12:57.719Z,96218.53
2022-12-27T07:15:24.659Z,96213.31
2022-12-27T07:17:51.177Z,96211.63
2022-12-27T07:20:18.132Z,96216.97
2022-12-27T07:22:44.811Z,96209.34
2022-12-27T07:25:11.354Z,96219.78
2022-12-27T07:27:38.005Z,96222.31
2022-12-27T07:30:05.401Z,96220.94
2022-12-27T07:32:31.968Z,96219.84
2022-12-27T07:34:58.926Z,96223.75
2022-12-27T07:37:25.912Z,96217.41
2022-12-27T07:39:52.528Z,96228.69
2022-12-27T07:42:19.120Z,96236.50
2022-12-27T07:44:46.154Z,96241.97
2022-12-27T07:47:13.265Z,96234.44
2022-12-27T07:49:39.813Z,96232.34
2022-12-27T07:52:06.271Z,96234.53
2022-12-27T07:54:33.286Z,96234.06
2022-12-27T07:56:59.901Z,96230.50
2022-12-27T07:59:26.362Z,96232.13
2022-12-27T08:01:52.961Z,96229.47
2022-12-27T08:04:20.235Z,96222.63
2022-12-27T08:06:47.203Z,96228.16
2022-12-27T08:09:15.724Z,96233.59
2022-12-27T08:11:42.406Z,96238.88
2022-12-27T08:14:09.464Z,96236.25
2022-12-27T08:16:36.171Z,96227.97
2022-12-27T08:19:08.183Z,96224.22
2022-12-27T08:21:35.054Z,96225.13
2022-12-27T08:24:01.807Z,96229.44
2022-12-27T08:26:28.286Z,96219.16
2022-12-27T08:28:55.354Z,96224.59
2022-12-27T08:31:22.073Z,96228.06
2022-12-27T08:33:52.447Z,96230.34
2022-12-27T08:39:10.311Z,96232.06
2022-12-27T08:41:42.749Z,96229.56
2022-12-27T08:44:11.393Z,96229.44
2022-12-27T08:46:38.781Z,96229.81
2022-12-27T08:49:05.521Z,96232.13
2022-12-27T08:51:40.411Z,96229.38
2022-12-27T08:54:08.227Z,96228.13
2022-12-27T08:56:35.031Z,96233.13
2022-12-27T08:59:04.983Z,96234.72
2022-12-27T09:01:33.143Z,96240.69
2022-12-27T09:03:59.705Z,96236.19
2022-12-27T09:06:27.330Z,96250.06
2022-12-27T09:08:54.495Z,96248.47
2022-12-27T09:11:22.577Z,96246.84
2022-12-27T09:13:49.746Z,96248.91
2022-12-27T09:16:21.235Z,96251.81
2022-12-27T09:18:50.090Z,96256.28
2022-12-27T09:21:17.269Z,96243.72
2022-12-27T09:23:44.358Z,96253.31
2022-12-27T09:26:13.447Z,96255.97
2022-12-27T09:28:40.211Z,96249.00
2022-12-27T09:31:08.954Z,96249.50
2022-12-27T09:33:35.485Z,96245.34
2022-12-27T09:36:13.124Z,96248.13
2022-12-27T09:38:40.519Z,96257.16
2022-12-27T09:41:19.320Z,96258.81
2022-12-27T09:44:03.403Z,96263.38
2022-12-27T09:46:39.414Z,96266.00
2022-12-27T09:49:11.190Z,96256.59
2022-12-27T09:52:00.737Z,96251.94
2022-12-27T09:54:33.246Z,96251.59
2022-12-27T09:59:49.297Z,96254.94
2022-12-27T10:02:22.645Z,96259.88
2022-12-27T10:08:07.197Z,96252.53
2022-12-27T10:10:54.885Z,96247.03
2022-12-27T10:13:49.734Z,96250.28
2022-12-27T10:16:54.156Z,96248.63
2022-12-27T10:19:43.197Z,96247.38
2022-12-27T10:22:24.696Z,96252.59
2022-12-27T10:28:43.088Z,96242.06
2022-12-27T10:31:16.015Z,96246.81
2022-12-27T10:33:42.927Z,96245.38
2022-12-27T10:36:13.713Z,96245.75
2022-12-27T10:38:40.290Z,96233.53
2022-12-27T10:41:23.459Z,96226.06
2022-12-27T10:43:54.362Z,96229.84
2022-12-27T10:46:32.179Z,96226.97
2022-12-27T10:49:22.247Z,96236.22
2022-12-27T10:51:51.434Z,96228.53
2022-12-27T10:54:25.248Z,96225.75
2022-12-27T10:56:54.626Z,96218.63
2022-12-27T10:59:26.581Z,96228.44
2022-12-27T11:02:02.388Z,96214.59
2022-12-27T11:04:30.732Z,96207.69
2022-12-27T11:06:58.997Z,96211.34
2022-12-27T11:09:35.346Z,96218.25
2022-12-27T11:12:23.161Z,96198.50
2022-12-27T11:15:03.342Z,96207.88
2022-12-27T11:17:33.173Z,96206.25
2022-12-27T11:20:05.513Z,96195.44
2022-12-27T11:22:32.068Z,96195.03
2022-12-27T11:24:59.548Z,96188.91
2022-12-27T11:27:28.000Z,96182.59
2022-12-27T11:29:56.924Z,96177.91
2022-12-27T11:32:24.208Z,96185.28
2022-12-27T11:34:53.538Z,96178.94
2022-12-27T11:37:23.516Z,96173.22
2022-12-27T11:43:21.081Z,96164.25
2022-12-27T11:45:50.163Z,96157.69
2022-12-27T11:48:29.912Z,96152.00
2022-12-27T11:51:18.669Z,96155.13
2022-12-27T11:53:54.215Z,96150.84
2022-12-27T11:56:27.598Z,96148.72
2022-12-27T12:02:05.726Z,96141.06
2022-12-27T12:05:09.858Z,96134.16
2022-12-27T12:08:05.607Z,96132.19
2022-12-27T12:10:59.572Z,96136.44
2022-12-27T12:13:40.977Z,96149.22
2022-12-27T12:16:26.351Z,96145.22
2022-12-27T12:19:06.895Z,96146.41
2022-12-27T12:21:40.632Z,96148.91
2022-12-27T12:24:36.603Z,96151.19
2022-12-27T12:27:10.705Z,96149.72
2022-12-27T12:30:34.231Z,96153.81
2022-12-27T12:33:33.112Z,96144.84
2022-12-27T12:36:33.089Z,96150.56
2022-12-27T12:39:21.287Z,96145.41
2022-12-27T12:42:02.871Z,96144.84
2022-12-27T12:44:41.790Z,96140.91
2022-12-27T12:47:08.514Z,96141.72
2022-12-27T12:49:45.378Z,96140.00
2022-12-27T12:52:30.996Z,96142.22
2022-12-27T12:55:26.971Z,96143.09
2022-12-27T12:58:28.745Z,96134.59
2022-12-27T13:01:18.973Z,96137.44
2022-12-27T13:04:23.516Z,96149.50
2022-12-27T13:07:18.071Z,96145.59
2022-12-27T13:09:53.279Z,96147.03
2022-12-27T13:12:30.752Z,96149.44
2022-12-27T13:15:16.022Z,96147.53
2022-12-27T13:18:40.126Z,96144.03
2022-12-27T13:21:19.300Z,96131.88
2022-12-27T13:24:23.745Z,96126.81
2022-12-27T13:27:06.396Z,96136.13
2022-12-27T13:29:53.302Z,96131.03
2022-12-27T13:32:19.876Z,96131.97
2022-12-27T13:34:58.504Z,96129.97
2022-12-27T13:37:35.262Z,96126.81
2022-12-27T13:40:17.061Z,96133.63
2022-12-27T13:43:15.525Z,96137.50
2022-12-27T13:46:05.406Z,96144.66
2022-12-27T13:49:06.110Z,96142.19
2022-12-27T13:51:49.650Z,96141.03
2022-12-27T13:54:45.292Z,96135.63
2022-12-27T13:57:31.315Z,96137.09
2022-12-27T14:00:07.161Z,96137.41
2022-12-27T14:02:50.865Z,96138.44
2022-12-27T14:05:29.700Z,96142.00
2022-12-27T14:08:39.360Z,96133.03
2022-12-27T14:11:20.417Z,96124.91
2022-12-27T14:13:47.591Z,96135.19
2022-12-27T14:16:37.049Z,96134.78
2022-12-27T14:19:19.102Z,96136.63
2022-12-27T14:22:21.904Z,96147.28
2022-12-27T14:24:57.291Z,96144.16
2022-12-27T14:27:51.492Z,96135.19
2022-12-27T14:30:59.720Z,96136.66
2022-12-27T14:33:46.153Z,96134.63
2022-12-27T14:36:28.351Z,96129.34
2022-12-27T14:39:19.463Z,96136.25
2022-12-27T14:42:19.172Z,96132.78
2022-12-27T14:45:15.348Z,96129.66
2022-12-27T14:48:06.526Z,96129.47
2022-12-27T14:51:03.408Z,96124.38
2022-12-27T14:54:02.636Z,96123.97
2022-12-27T14:56:50.196Z,96117.69
2022-12-27T14:59:54.206Z,96119.94
2022-12-27T15:02:39.031Z,96108.13
2022-12-27T15:05:31.285Z,96105.88
2022-12-27T15:08:01.290Z,96107.53
2022-12-27T15:10:46.652Z,96105.91
2022-12-27T15:13:43.425Z,96109.16
2022-12-27T15:16:26.152Z,96106.94
2022-12-27T15:19:01.879Z,96102.44
2022-12-27T15:21:50.582Z,96104.91
2022-12-27T15:24:28.440Z,96099.41
2022-12-27T15:27:01.902Z,96101.22
2022-12-27T15:29:50.991Z,96096.53
2022-12-27T15:32:42.087Z,96098.97
2022-12-27T15:35:23.829Z,96099.19
2022-12-27T15:37:51.557Z,96105.72
2022-12-27T15:40:35.369Z,96102.25
2022-12-27T15:43:20.955Z,96107.34
2022-12-27T15:45:47.487Z,96107.34
2022-12-27T15:48:32.893Z,96115.09
2022-12-27T15:51:08.992Z,96108.78
2022-12-27T15:54:10.309Z,96108.97
2022-12-27T15:56:51.982Z,96099.19
2022-12-27T15:59:44.564Z,96109.69
2022-12-27T16:02:19.551Z,96106.41
2022-12-27T16:04:53.313Z,96113.34
2022-12-27T16:07:43.353Z,96111.31
2022-12-27T16:10:31.569Z,96110.50
2022-12-27T16:13:10.211Z,96116.00
2022-12-27T16:15:39.655Z,96114.78
2022-12-27T16:18:11.557Z,96113.59
2022-12-27T16:20:38.317Z,96118.69
2022-12-27T16:23:06.391Z,96106.69
2022-12-27T16:25:34.569Z,96111.75
2022-12-27T16:28:06.729Z,96114.19
2022-12-27T16:30:39.837Z,96103.59
2022-12-27T16:33:27.862Z,96105.81
2022-12-27T16:36:12.685Z,96105.97
2022-12-27T16:39:11.530Z,96104.72
2022-12-27T16:41:49.398Z,96108.50
2022-12-27T16:44:22.461Z,96119.59
2022-12-27T16:47:00.774Z,96113.84
2022-12-27T16:50:03.770Z,96112.94
2022-12-27T16:52:58.362Z,96118.72
2022-12-27T16:55:58.737Z,96117.66
2022-12-27T16:58:30.957Z,96112.41
2022-12-27T17:00:58.862Z,96115.00
2022-12-27T17:03:35.903Z,96115.81
2022-12-27T17:06:31.846Z,96105.06
2022-12-27T17:09:08.690Z,96111.75
2022-12-27T17:11:50.235Z,96108.28
2022-12-27T17:14:26.070Z,96099.56
2022-12-27T17:17:03.568Z,96101.13
2022-12-27T17:19:39.891Z,96106.81
2022-12-27T17:22:08.080Z,96111.81
2022-12-27T17:24:37.535Z,96111.69
2022-12-27T17:27:23.492Z,96102.53
2022-12-27T17:30:02.144Z,96108.19
2022-12-27T17:32:34.727Z,96111.38
2022-12-27T17:35:27.159Z,96109.41
2022-12-27T17:38:09.443Z,96105.56
2022-12-27T17:40:49.552Z,96104.19
2022-12-27T17:43:28.113Z,96110.81
2022-12-27T17:46:33.618Z,96111.94
2022-12-27T17:49:00.209Z,96106.66
2022-12-27T17:51:28.347Z,96107.00
2022-12-27T17:53:56.165Z,96115.47
2022-12-27T17:56:23.274Z,96107.72
2022-12-27T17:58:51.761Z,96119.03
2022-12-27T18:01:21.824Z,96109.00
2022-12-27T18:03:51.382Z,96117.38
2022-12-27T18:06:19.384Z,96120.59
2022-12-27T18:08:48.146Z,96121.81
2022-12-27T18:11:14.693Z,96120.63
2022-12-27T18:13:48.078Z,96124.34
2022-12-27T18:16:30.673Z,96128.75
2022-12-27T18:18:57.304Z,96129.31
2022-12-27T18:21:26.537Z,96135.94
2022-12-27T18:23:53.659Z,96134.31
2022-12-27T18:26:41.297Z,96132.44
2022-12-27T18:29:11.153Z,96133.78
2022-12-27T18:31:48.898Z,96132.81
2022-12-27T18:34:25.431Z,96136.75
2022-12-27T18:36:58.944Z,96134.94
2022-12-27T18:39:29.118Z,96142.63
2022-12-27T18:41:55.951Z,96141.28
2022-12-27T18:44:27.677Z,96132.50
2022-12-27T18:46:57.030Z,96133.31
2022-12-27T18:49:35.313Z,96133.91
2022-12-27T18:52:02.945Z,96141.47
2022-12-27T18:54:29.317Z,96130.81
2022-12-27T18:56:57.327Z,96129.97
2022-12-27T18:59:26.724Z,96133.25
2022-12-27T19:01:54.639Z,96125.56
2022-12-27T19:04:23.886Z,96126.75
2022-12-27T19:07:09.913Z,96126.06
2022-12-27T19:09:39.490Z,96122.38
2022-12-27T19:12:37.221Z,96125.09
2022-12-27T19:15:05.007Z,96125.66
2022-12-27T19:17:32.037Z,96126.53
2022-12-27T19:20:02.186Z,96119.41
2022-12-27T19:22:30.078Z,96123.22
2022-12-27T19:25:06.251Z,96119.53
2022-12-27T19:27:32.893Z,96120.22
2022-12-27T19:30:00.142Z,96107.81
2022-12-27T19:32:32.022Z,96112.66
2022-12-27T19:35:00.480Z,96108.19
2022-12-27T19:37:28.227Z,96104.38
2022-12-27T19:39:55.426Z,96099.00
2022-12-27T19:42:35.068Z,96103.09
2022-12-27T19:45:01.773Z,96092.31
2022-12-27T19:47:29.388Z,96092.31
2022-12-27T19:49:55.868Z,96097.44
2022-12-27T19:52:26.009Z,96087.53
2022-12-27T19:55:00.511Z,96086.63
2022-12-27T19:57:27.163Z,96086.09
2022-12-27T19:59:53.780Z,96078.94
2022-12-27T20:02:20.360Z,96074.75
2022-12-27T20:04:46.943Z,96072.75
2022-12-27T20:07:19.681Z,96063.66
2022-12-27T20:09:46.330Z,96063.28
2022-12-27T20:12:15.597Z,96065.47
2022-12-27T20:14:42.439Z,96070.31
2022-12-27T20:17:09.033Z,96073.66
2022-12-27T20:19:35.507Z,96069.97
2022-12-27T20:22:02.285Z,96072.06
2022-12-27T20:24:28.764Z,96078.41
2022-12-27T20:26:55.223Z,96073.75
2022-12-27T20:29:21.764Z,96071.88
2022-12-27T20:31:48.246Z,96074.66
2022-12-27T20:34:14.756Z,96071.25
2022-12-27T20:36:41.206Z,96065.22
2022-12-27T20:39:10.119Z,96061.31
2022-12-27T20:41:38.188Z,96058.69
2022-12-27T20:44:05.400Z,96061.44
2022-12-27T20:46:32.207Z,96060.75
2022-12-27T20:48:59.893Z,96072.53
2022-12-27T20:51:28.219Z,96070.00
2022-12-27T20:53:59.642Z,96062.19
2022-12-27T20:56:26.605Z,96062.19
2022-12-27T20:58:53.181Z,96058.09
2022-12-27T21:01:22.672Z,96060.19
2022-12-27T21:03:49.533Z,96060.47
2022-12-27T21:06:18.839Z,96057.91
2022-12-27T21:08:49.045Z,96064.00
2022-12-27T21:11:24.554Z,96063.19
2022-12-27T21:13:51.321Z,96064.34
2022-12-27T21:16:26.113Z,96066.63
2022-12-27T21:18:53.770Z,96059.69
2022-12-27T21:21:22.641Z,96061.94
2022-12-27T21:23:50.517Z,96058.22
2022-12-27T21:26:22.381Z,96064.75
2022-12-27T21:28:49.637Z,96069.31
2022-12-27T21:31:17.243Z,96066.13
2022-12-27T21:33:43.894Z,96066.50
2022-12-27T21:36:16.473Z,96069.19
2022-12-27T21:38:43.633Z,96068.75
2022-12-27T21:41:16.779Z,96068.63
2022-12-27T21:43:44.498Z,96077.94
2022-12-27T21:46:22.014Z,96079.91
2022-12-27T21:48:53.011Z,96077.06
2022-12-27T21:51:21.639Z,96077.00
2022-12-27T21:53:48.125Z,96070.16
2022-12-27T21:56:15.874Z,96070.22
2022-12-27T21:58:43.375Z,96074.63
2022-12-27T22:01:50.389Z,96079.69
2022-12-27T22:04:21.996Z,96082.91
2022-12-27T22:06:48.762Z,96091.22
2022-12-27T22:09:15.630Z,96091.72
2022-12-27T22:11:42.364Z,96089.31
2022-12-27T22:14:08.827Z,96085.34
2022-12-27T22:16:37.447Z,96081.94
2022-12-27T22:19:08.771Z,96081.81
2022-12-27T22:21:36.998Z,96091.03
2022-12-27T22:24:04.166Z,96080.03
2022-12-27T22:26:33.562Z,96085.78
2022-12-27T22:29:02.438Z,96083.19
2022-12-27T22:31:31.237Z,96084.75
2022-12-27T22:33:57.826Z,96084.06
2022-12-27T22:36:25.560Z,96087.50
2022-12-27T22:38:52.648Z,96075.28
2022-12-27T22:41:20.170Z,96081.81
2022-12-27T22:43:54.584Z,96080.38
2022-12-27T22:46:21.538Z,96073.66
2022-12-27T22:48:52.804Z,96067.22
2022-12-27T22:51:21.505Z,96071.09
2022-12-27T22:53:48.189Z,96072.84
2022-12-27T22:56:16.478Z,96074.66
2022-12-27T22:58:44.695Z,96077.28
2022-12-27T23:01:16.010Z,96076.75
2022-12-27T23:03:42.947Z,96075.03
2022-12-27T23:06:09.883Z,96073.34
2022-12-27T23:08:36.623Z,96070.72
2022-12-27T23:11:05.278Z,96063.72
2022-12-27T23:13:31.824Z,96064.78
2022-12-27T23:15:59.621Z,96069.47
2022-12-27T23:18:26.727Z,96060.16
2022-12-27T23:21:20.295Z,96055.09
2022-12-27T23:23:42.988Z,96062.78
2022-12-27T23:26:14.326Z,96055.13
2022-12-27T23:28:42.365Z,96052.88
2022-12-27T23:31:10.193Z,96051.69
2022-12-27T23:33:37.151Z,96049.97
2022-12-27T23:36:04.087Z,96038.34
2022-12-27T23:38:30.601Z,96042.16
2022-12-27T23:40:58.994Z,96044.41
2022-12-27T23:43:51.556Z,96043.78
2022-12-27T23:46:28.641Z,96041.63
2022-12-27T23:49:00.331Z,96039.25
2022-12-27T23:51:27.447Z,96032.53
2022-12-27T23:53:54.613Z,96041.25
2022-12-27T23:56:28.140Z,96036.72
2022-12-27T23:58:56.583Z,96043.44
